sensor_id;sensor_type;location;lat;lon;timestamp;pressure;altitude;pressure_sealevel;temperature;humidity
80186;BME280;69904;52.122;5.422;2024-03-29T00:02:19;99070.19;;;8.55;66.70
80186;BME280;69904;52.122;5.422;2024-03-29T00:04:44;99062.59;;;8.52;66.80
80186;BME280;69904;52.122;5.422;2024-03-29T00:07:10;99058.47;;;8.50;67.29
80186;BME280;69904;52.122;5.422;2024-03-29T00:09:35;99054.38;;;8.47;67.13
80186;BME280;69904;52.122;5.422;2024-03-29T00:12:01;99052.13;;;8.44;67.33
80186;BME280;69904;52.122;5.422;2024-03-29T00:14:26;99057.75;;;8.42;67.24
80186;BME280;69904;52.122;5.422;2024-03-29T00:16:52;99052.13;;;8.44;67.43
80186;BME280;69904;52.122;5.422;2024-03-29T00:19:17;99057.97;;;8.41;67.38
80186;BME280;69904;52.122;5.422;2024-03-29T00:21:43;99058.44;;;8.38;67.31
80186;BME280;69904;52.122;5.422;2024-03-29T00:24:08;99064.66;;;8.38;67.54
80186;BME280;69904;52.122;5.422;2024-03-29T00:26:34;99066.94;;;8.35;67.56
80186;BME280;69904;52.122;5.422;2024-03-29T00:28:59;99073.38;;;8.34;67.83
80186;BME280;69904;52.122;5.422;2024-03-29T00:31:25;99070.69;;;8.34;67.62
80186;BME280;69904;52.122;5.422;2024-03-29T00:33:50;99072.78;;;8.32;67.89
80186;BME280;69904;52.122;5.422;2024-03-29T00:36:16;99066.81;;;8.30;68.01
80186;BME280;69904;52.122;5.422;2024-03-29T00:38:41;99082.94;;;8.30;67.94
80186;BME280;69904;52.122;5.422;2024-03-29T00:41:07;99086.88;;;8.27;68.20
80186;BME280;69904;52.122;5.422;2024-03-29T00:43:32;99085.81;;;8.28;68.18
80186;BME280;69904;52.122;5.422;2024-03-29T00:45:58;99094.94;;;8.27;68.21
80186;BME280;69904;52.122;5.422;2024-03-29T00:48:23;99097.03;;;8.25;68.26
80186;BME280;69904;52.122;5.422;2024-03-29T00:50:50;99095.16;;;8.26;68.22
80186;BME280;69904;52.122;5.422;2024-03-29T00:53:15;99099.50;;;8.27;68.52
80186;BME280;69904;52.122;5.422;2024-03-29T00:55:41;99095.97;;;8.26;68.23
80186;BME280;69904;52.122;5.422;2024-03-29T00:58:06;99095.97;;;8.26;68.31
80186;BME280;69904;52.122;5.422;2024-03-29T01:00:32;99096.19;;;8.25;68.14
80186;BME280;69904;52.122;5.422;2024-03-29T01:02:58;99096.19;;;8.25;68.48
80186;BME280;69904;52.122;5.422;2024-03-29T01:05:24;99106.34;;;8.23;68.62
80186;BME280;69904;52.122;5.422;2024-03-29T01:07:49;99104.25;;;8.25;68.50
80186;BME280;69904;52.122;5.422;2024-03-29T01:10:15;99106.13;;;8.24;68.85
80186;BME280;69904;52.122;5.422;2024-03-29T01:12:40;99089.19;;;8.24;68.86
80186;BME280;69904;52.122;5.422;2024-03-29T01:15:06;99099.34;;;8.22;68.72
80186;BME280;69904;52.122;5.422;2024-03-29T01:17:32;99103.06;;;8.21;68.90
80186;BME280;69904;52.122;5.422;2024-03-29T01:19:57;99097.91;;;8.19;69.30
80186;BME280;69904;52.122;5.422;2024-03-29T01:22:23;99095.84;;;8.21;68.91
80186;BME280;69904;52.122;5.422;2024-03-29T01:24:48;99088.22;;;8.18;68.97
80186;BME280;69904;52.122;5.422;2024-03-29T01:27:14;99082.47;;;8.15;69.03
80186;BME280;69904;52.122;5.422;2024-03-29T01:29:39;99077.31;;;8.13;69.18
80186;BME280;69904;52.122;5.422;2024-03-29T01:32:05;99079.44;;;8.11;69.27
80186;BME280;69904;52.122;5.422;2024-03-29T01:34:31;99085.63;;;8.12;69.20
80186;BME280;69904;52.122;5.422;2024-03-29T01:36:57;99071.13;;;8.13;69.30
80186;BME280;69904;52.122;5.422;2024-03-29T01:39:22;99069.25;;;8.13;69.21
80186;BME280;69904;52.122;5.422;2024-03-29T01:41:54;99075.66;;;8.12;69.21
80186;BME280;69904;52.122;5.422;2024-03-29T01:44:20;99064.72;;;8.14;68.96
80186;BME280;69904;52.122;5.422;2024-03-29T01:46:46;99066.34;;;8.15;69.15
80186;BME280;69904;52.122;5.422;2024-03-29T01:49:13;99066.56;;;8.13;69.00
80186;BME280;69904;52.122;5.422;2024-03-29T01:51:39;99060.38;;;8.13;68.90
80186;BME280;69904;52.122;5.422;2024-03-29T01:54:06;99062.25;;;8.12;68.87
80186;BME280;69904;52.122;5.422;2024-03-29T01:56:34;99051.94;;;8.09;68.89
80186;BME280;69904;52.122;5.422;2024-03-29T01:59:00;99042.50;;;8.07;69.15
80186;BME280;69904;52.122;5.422;2024-03-29T02:01:30;99041.06;;;8.04;68.82
80186;BME280;69904;52.122;5.422;2024-03-29T02:03:55;99045.63;;;8.03;69.07
80186;BME280;69904;52.122;5.422;2024-03-29T02:06:22;99042.94;;;8.03;68.81
80186;BME280;69904;52.122;5.422;2024-03-29T02:08:49;99044.22;;;8.01;69.00
80186;BME280;69904;52.122;5.422;2024-03-29T02:11:17;99043.59;;;7.99;68.78
80186;BME280;69904;52.122;5.422;2024-03-29T02:13:44;99040.56;;;7.95;68.86
80186;BME280;69904;52.122;5.422;2024-03-29T02:16:10;99042.63;;;7.93;69.20
80186;BME280;69904;52.122;5.422;2024-03-29T02:18:35;99064.13;;;7.93;68.89
80186;BME280;69904;52.122;5.422;2024-03-29T02:21:01;99061.06;;;7.90;69.26
80186;BME280;69904;52.122;5.422;2024-03-29T02:23:27;99067.91;;;7.86;69.02
80186;BME280;69904;52.122;5.422;2024-03-29T02:25:55;99061.72;;;7.85;69.41
80186;BME280;69904;52.122;5.422;2024-03-29T02:28:22;99076.44;;;7.83;69.19
80186;BME280;69904;52.122;5.422;2024-03-29T02:30:49;99070.44;;;7.81;69.21
80186;BME280;69904;52.122;5.422;2024-03-29T02:33:14;99086.34;;;7.82;69.41
80186;BME280;69904;52.122;5.422;2024-03-29T02:35:40;99083.06;;;7.80;69.62
80186;BME280;69904;52.122;5.422;2024-03-29T02:38:05;99077.31;;;7.77;69.78
80186;BME280;69904;52.122;5.422;2024-03-29T02:40:31;99078.97;;;7.78;69.82
80186;BME280;69904;52.122;5.422;2024-03-29T02:42:56;99085.59;;;7.75;69.86
80186;BME280;69904;52.122;5.422;2024-03-29T02:45:22;99090.97;;;7.75;69.81
80186;BME280;69904;52.122;5.422;2024-03-29T02:47:47;99096.31;;;7.75;69.54
80186;BME280;69904;52.122;5.422;2024-03-29T02:50:15;99096.31;;;7.75;69.76
80186;BME280;69904;52.122;5.422;2024-03-29T02:52:41;99080.81;;;7.77;69.79
80186;BME280;69904;52.122;5.422;2024-03-29T02:55:07;99072.78;;;7.77;69.79
80186;BME280;69904;52.122;5.422;2024-03-29T02:57:33;99088.06;;;7.77;69.69
80186;BME280;69904;52.122;5.422;2024-03-29T02:59:58;99079.19;;;7.76;69.91
80186;BME280;69904;52.122;5.422;2024-03-29T03:02:24;99075.25;;;7.79;69.64
80186;BME280;69904;52.122;5.422;2024-03-29T03:04:49;99079.56;;;7.80;69.62
80186;BME280;69904;52.122;5.422;2024-03-29T03:07:15;99089.72;;;7.78;69.84
80186;BME280;69904;52.122;5.422;2024-03-29T03:09:59;99089.25;;;7.81;69.59
80186;BME280;69904;52.122;5.422;2024-03-29T03:12:43;99083.44;;;7.84;69.65
80186;BME280;69904;52.122;5.422;2024-03-29T03:15:09;99080.53;;;7.85;69.36
80186;BME280;69904;52.122;5.422;2024-03-29T03:17:34;99085.88;;;7.85;69.39
80186;BME280;69904;52.122;5.422;2024-03-29T03:20:00;99090.22;;;7.86;69.50
80186;BME280;69904;52.122;5.422;2024-03-29T03:22:25;99092.69;;;7.88;69.58
80186;BME280;69904;52.122;5.422;2024-03-29T03:24:51;99094.13;;;7.90;69.34
80186;BME280;69904;52.122;5.422;2024-03-29T03:27:16;99099.25;;;7.92;69.11
80186;BME280;69904;52.122;5.422;2024-03-29T03:29:42;99106.28;;;7.93;69.11
80186;BME280;69904;52.122;5.422;2024-03-29T03:32:08;99110.16;;;7.97;69.37
80186;BME280;69904;52.122;5.422;2024-03-29T03:34:33;99106.66;;;7.96;68.95
80186;BME280;69904;52.122;5.422;2024-03-29T03:36:59;99096.50;;;7.98;69.26
80186;BME280;69904;52.122;5.422;2024-03-29T03:39:25;99094.44;;;8.00;69.03
80186;BME280;69904;52.122;5.422;2024-03-29T03:41:50;99100.63;;;8.01;69.02
80186;BME280;69904;52.122;5.422;2024-03-29T03:44:16;99103.88;;;8.03;68.88
80186;BME280;69904;52.122;5.422;2024-03-29T03:46:42;99102.03;;;8.03;69.25
80186;BME280;69904;52.122;5.422;2024-03-29T03:49:07;99101.81;;;8.05;69.38
80186;BME280;69904;52.122;5.422;2024-03-29T03:51:33;99114.44;;;8.04;69.03
80186;BME280;69904;52.122;5.422;2024-03-29T03:53:58;99109.41;;;8.08;69.41
80186;BME280;69904;52.122;5.422;2024-03-29T03:56:24;99100.31;;;8.09;69.23
80186;BME280;69904;52.122;5.422;2024-03-29T03:58:49;99112.50;;;8.12;69.35
80186;BME280;69904;52.122;5.422;2024-03-29T04:01:15;99120.31;;;8.13;69.28
80186;BME280;69904;52.122;5.422;2024-03-29T04:03:40;99119.88;;;8.16;69.33
80186;BME280;69904;52.122;5.422;2024-03-29T04:06:06;99112.41;;;8.18;69.48
80186;BME280;69904;52.122;5.422;2024-03-29T04:08:32;99122.94;;;8.20;69.24
80186;BME280;69904;52.122;5.422;2024-03-29T04:10:58;99116.31;;;8.22;69.40
80186;BME280;69904;52.122;5.422;2024-03-29T04:13:27;99127.03;;;8.22;69.71
80186;BME280;69904;52.122;5.422;2024-03-29T04:15:52;99128.03;;;8.28;69.49
80186;BME280;69904;52.122;5.422;2024-03-29T04:18:18;99124.06;;;8.30;69.28
80186;BME280;69904;52.122;5.422;2024-03-29T04:20:43;99124.06;;;8.30;69.49
80186;BME280;69904;52.122;5.422;2024-03-29T04:23:08;99116.38;;;8.34;69.35
80186;BME280;69904;52.122;5.422;2024-03-29T04:25:34;99114.28;;;8.36;69.19
80186;BME280;69904;52.122;5.422;2024-03-29T04:27:59;99111.59;;;8.36;69.23
80186;BME280;69904;52.122;5.422;2024-03-29T04:30:25;99112.44;;;8.36;69.01
80186;BME280;69904;52.122;5.422;2024-03-29T04:32:51;99111.38;;;8.37;69.39
80186;BME280;69904;52.122;5.422;2024-03-29T04:35:16;99117.59;;;8.38;69.26
80186;BME280;69904;52.122;5.422;2024-03-29T04:37:42;99104.97;;;8.38;69.39
80186;BME280;69904;52.122;5.422;2024-03-29T04:40:07;99115.47;;;8.40;69.54
80186;BME280;69904;52.122;5.422;2024-03-29T04:42:33;99106.38;;;8.41;69.62
80186;BME280;69904;52.122;5.422;2024-03-29T04:44:59;99118.78;;;8.42;69.82
80186;BME280;69904;52.122;5.422;2024-03-29T04:47:24;99132.34;;;8.47;70.13
80186;BME280;69904;52.122;5.422;2024-03-29T04:49:50;99123.25;;;8.48;70.26
80186;BME280;69904;52.122;5.422;2024-03-29T04:52:15;99122.84;;;8.44;71.19
80186;BME280;69904;52.122;5.422;2024-03-29T04:54:42;99119.81;;;8.41;72.02
80186;BME280;69904;52.122;5.422;2024-03-29T04:57:09;99109.13;;;8.34;72.83
80186;BME280;69904;52.122;5.422;2024-03-29T04:59:34;99119.13;;;8.27;74.12
80186;BME280;69904;52.122;5.422;2024-03-29T05:02:00;99125.63;;;8.20;75.04
80186;BME280;69904;52.122;5.422;2024-03-29T05:04:26;99127.53;;;8.13;75.98
80186;BME280;69904;52.122;5.422;2024-03-29T05:06:52;99112.56;;;8.05;76.69
80186;BME280;69904;52.122;5.422;2024-03-29T05:09:18;99126.66;;;8.00;77.39
80186;BME280;69904;52.122;5.422;2024-03-29T05:11:44;99123.22;;;7.93;78.35
80186;BME280;69904;52.122;5.422;2024-03-29T05:14:11;99134.25;;;7.85;79.32
80186;BME280;69904;52.122;5.422;2024-03-29T05:16:40;99138.41;;;7.81;79.51
80186;BME280;69904;52.122;5.422;2024-03-29T05:19:06;99125.44;;;7.78;79.87
80186;BME280;69904;52.122;5.422;2024-03-29T05:21:31;99129.63;;;7.74;80.70
80186;BME280;69904;52.122;5.422;2024-03-29T05:23:57;99130.88;;;7.72;80.98
80186;BME280;69904;52.122;5.422;2024-03-29T05:26:22;99119.50;;;7.70;81.17
80186;BME280;69904;52.122;5.422;2024-03-29T05:28:48;99135.88;;;7.68;81.91
80186;BME280;69904;52.122;5.422;2024-03-29T05:31:14;99149.50;;;7.67;82.18
80186;BME280;69904;52.122;5.422;2024-03-29T05:33:43;99164.59;;;7.68;82.29
80186;BME280;69904;52.122;5.422;2024-03-29T05:36:10;99167.25;;;7.68;82.56
80186;BME280;69904;52.122;5.422;2024-03-29T05:38:39;99176.16;;;7.68;82.85
80186;BME280;69904;52.122;5.422;2024-03-29T05:41:04;99179.03;;;7.67;82.93
80186;BME280;69904;52.122;5.422;2024-03-29T05:43:30;99193.28;;;7.67;83.26
80186;BME280;69904;52.122;5.422;2024-03-29T05:45:56;99185.03;;;7.69;83.46
80186;BME280;69904;52.122;5.422;2024-03-29T05:48:22;99176.97;;;7.69;83.36
80186;BME280;69904;52.122;5.422;2024-03-29T05:50:47;99178.81;;;7.68;83.79
80186;BME280;69904;52.122;5.422;2024-03-29T05:53:13;99182.75;;;7.66;83.94
80186;BME280;69904;52.122;5.422;2024-03-29T05:55:38;99206.09;;;7.65;84.18
80186;BME280;69904;52.122;5.422;2024-03-29T05:58:04;99206.94;;;7.66;84.36
80186;BME280;69904;52.122;5.422;2024-03-29T06:00:32;99202.59;;;7.65;84.68
80186;BME280;69904;52.122;5.422;2024-03-29T06:02:59;99198.28;;;7.64;85.00
80186;BME280;69904;52.122;5.422;2024-03-29T06:05:24;99192.31;;;7.61;85.00
80186;BME280;69904;52.122;5.422;2024-03-29T06:07:50;99197.66;;;7.61;85.51
80186;BME280;69904;52.122;5.422;2024-03-29T06:10:16;99216.25;;;7.63;85.27
80186;BME280;69904;52.122;5.422;2024-03-29T06:12:42;99218.69;;;7.65;85.69
80186;BME280;69904;52.122;5.422;2024-03-29T06:15:08;99213.31;;;7.65;85.86
80186;BME280;69904;52.122;5.422;2024-03-29T06:17:52;99219.75;;;7.64;85.95
80186;BME280;69904;52.122;5.422;2024-03-29T06:20:17;99231.28;;;7.64;85.95
80186;BME280;69904;52.122;5.422;2024-03-29T06:22:43;99220.56;;;7.64;86.21
80186;BME280;69904;52.122;5.422;2024-03-29T06:25:09;99227.38;;;7.67;86.38
80186;BME280;69904;52.122;5.422;2024-03-29T06:27:36;99224.03;;;7.71;86.40
80186;BME280;69904;52.122;5.422;2024-03-29T06:30:05;99229.41;;;7.71;86.62
80186;BME280;69904;52.122;5.422;2024-03-29T06:32:31;99215.38;;;7.69;86.54
80186;BME280;69904;52.122;5.422;2024-03-29T06:34:58;99222.81;;;7.67;86.92
80186;BME280;69904;52.122;5.422;2024-03-29T06:37:24;99224.47;;;7.68;86.83
80186;BME280;69904;52.122;5.422;2024-03-29T06:39:51;99226.13;;;7.69;86.83
80186;BME280;69904;52.122;5.422;2024-03-29T06:42:17;99229.19;;;7.73;87.26
80186;BME280;69904;52.122;5.422;2024-03-29T06:44:43;99226.28;;;7.74;87.44
80186;BME280;69904;52.122;5.422;2024-03-29T06:47:09;99228.75;;;7.76;87.13
80186;BME280;69904;52.122;5.422;2024-03-29T06:49:34;99216.34;;;7.75;87.56
80186;BME280;69904;52.122;5.422;2024-03-29T06:52:00;99213.91;;;7.73;87.68
80186;BME280;69904;52.122;5.422;2024-03-29T06:54:30;99215.09;;;7.77;87.63
80186;BME280;69904;52.122;5.422;2024-03-29T06:56:56;99207.66;;;7.79;87.66
80186;BME280;69904;52.122;5.422;2024-03-29T06:59:22;99213.25;;;7.78;87.58
80186;BME280;69904;52.122;5.422;2024-03-29T07:01:48;99201.00;;;7.82;87.78
80186;BME280;69904;52.122;5.422;2024-03-29T07:04:21;99201.84;;;7.82;87.87
80186;BME280;69904;52.122;5.422;2024-03-29T07:06:47;99207.41;;;7.81;87.94
80186;BME280;69904;52.122;5.422;2024-03-29T07:09:22;99203.13;;;7.80;88.02
80186;BME280;69904;52.122;5.422;2024-03-29T07:11:51;99208.03;;;7.83;88.00
80186;BME280;69904;52.122;5.422;2024-03-29T07:14:18;99210.25;;;7.86;87.84
80186;BME280;69904;52.122;5.422;2024-03-29T07:16:45;99216.88;;;7.90;88.01
80186;BME280;69904;52.122;5.422;2024-03-29T07:19:11;99224.09;;;7.89;87.93
80186;BME280;69904;52.122;5.422;2024-03-29T07:21:42;99225.34;;;7.87;87.97
80186;BME280;69904;52.122;5.422;2024-03-29T07:24:08;99219.59;;;7.83;88.04
80186;BME280;69904;52.122;5.422;2024-03-29T07:26:34;99224.16;;;7.83;88.05
80186;BME280;69904;52.122;5.422;2024-03-29T07:29:00;99224.16;;;7.83;88.19
80186;BME280;69904;52.122;5.422;2024-03-29T07:31:26;99229.50;;;7.83;88.39
80186;BME280;69904;52.122;5.422;2024-03-29T07:33:52;99230.75;;;7.80;88.25
80186;BME280;69904;52.122;5.422;2024-03-29T07:36:17;99245.19;;;7.86;88.73
80186;BME280;69904;52.122;5.422;2024-03-29T07:38:43;99245.41;;;7.84;88.37
80186;BME280;69904;52.122;5.422;2024-03-29T07:41:11;99249.97;;;7.84;88.82
80186;BME280;69904;52.122;5.422;2024-03-29T07:43:39;99261.69;;;7.89;88.87
80186;BME280;69904;52.122;5.422;2024-03-29T07:46:06;99241.88;;;7.90;88.80
80186;BME280;69904;52.122;5.422;2024-03-29T07:48:34;99234.19;;;7.94;88.40
80186;BME280;69904;52.122;5.422;2024-03-29T07:51:00;99230.44;;;7.95;88.27
80186;BME280;69904;52.122;5.422;2024-03-29T07:53:25;99240.13;;;7.96;88.70
80186;BME280;69904;52.122;5.422;2024-03-29T07:55:51;99243.22;;;7.99;88.78
80186;BME280;69904;52.122;5.422;2024-03-29T07:58:16;99239.91;;;7.97;88.69
80186;BME280;69904;52.122;5.422;2024-03-29T08:00:42;99243.88;;;7.95;88.53
80186;BME280;69904;52.122;5.422;2024-03-29T08:03:08;99246.13;;;7.98;88.53
80186;BME280;69904;52.122;5.422;2024-03-29T08:05:34;99245.28;;;7.97;88.99
80186;BME280;69904;52.122;5.422;2024-03-29T08:08:00;99235.81;;;7.95;88.89
80186;BME280;69904;52.122;5.422;2024-03-29T08:10:25;99227.53;;;7.96;89.02
80186;BME280;69904;52.122;5.422;2024-03-29T08:12:51;99214.50;;;8.00;88.79
80186;BME280;69904;52.122;5.422;2024-03-29T08:15:16;99219.63;;;8.01;88.75
80186;BME280;69904;52.122;5.422;2024-03-29T08:17:44;99231.50;;;8.12;88.88
80186;BME280;69904;52.122;5.422;2024-03-29T08:20:10;99240.13;;;8.21;88.62
80186;BME280;69904;52.122;5.422;2024-03-29T08:22:36;99262.59;;;8.33;88.42
80186;BME280;69904;52.122;5.422;2024-03-29T08:25:01;99253.69;;;8.32;88.12
80186;BME280;69904;52.122;5.422;2024-03-29T08:27:27;99242.75;;;8.27;87.86
80186;BME280;69904;52.122;5.422;2024-03-29T08:29:53;99239.19;;;8.33;87.77
80186;BME280;69904;52.122;5.422;2024-03-29T08:32:19;99253.34;;;8.47;87.82
80186;BME280;69904;52.122;5.422;2024-03-29T08:34:44;99236.47;;;8.58;87.47
80186;BME280;69904;52.122;5.422;2024-03-29T08:37:10;99227.66;;;8.69;87.40
80186;BME280;69904;52.122;5.422;2024-03-29T08:39:35;99236.00;;;8.79;87.22
80186;BME280;69904;52.122;5.422;2024-03-29T08:42:07;99255.06;;;8.96;86.91
80186;BME280;69904;52.122;5.422;2024-03-29T08:44:32;99262.16;;;8.91;86.41
80186;BME280;69904;52.122;5.422;2024-03-29T08:46:59;99263.00;;;8.91;85.79
80186;BME280;69904;52.122;5.422;2024-03-29T08:49:30;99263.41;;;8.88;85.79
80186;BME280;69904;52.122;5.422;2024-03-29T08:51:56;99268.59;;;8.90;85.72
80186;BME280;69904;52.122;5.422;2024-03-29T08:54:23;99257.75;;;8.96;85.88
80186;BME280;69904;52.122;5.422;2024-03-29T08:56:48;99266.41;;;8.98;85.19
80186;BME280;69904;52.122;5.422;2024-03-29T08:59:14;99265.97;;;9.01;84.63
80186;BME280;69904;52.122;5.422;2024-03-29T09:01:44;99260.59;;;9.01;84.56
80186;BME280;69904;52.122;5.422;2024-03-29T09:04:10;99260.66;;;9.13;84.78
80186;BME280;69904;52.122;5.422;2024-03-29T09:06:39;99264.75;;;9.15;84.81
80186;BME280;69904;52.122;5.422;2024-03-29T09:09:05;99265.75;;;9.33;84.31
80186;BME280;69904;52.122;5.422;2024-03-29T09:11:31;99260.69;;;9.54;84.16
80186;BME280;69904;52.122;5.422;2024-03-29T09:13:57;99265.63;;;9.69;83.59
80186;BME280;69904;52.122;5.422;2024-03-29T09:16:27;99271.50;;;9.78;83.10
80186;BME280;69904;52.122;5.422;2024-03-29T09:18:54;99274.00;;;9.91;82.47
80186;BME280;69904;52.122;5.422;2024-03-29T09:21:20;99256.28;;;9.83;81.48
80186;BME280;69904;52.122;5.422;2024-03-29T09:23:46;99270.03;;;9.82;81.49
80186;BME280;69904;52.122;5.422;2024-03-29T09:26:14;99271.88;;;9.81;80.68
80186;BME280;69904;52.122;5.422;2024-03-29T09:28:40;99276.91;;;9.78;80.85
80186;BME280;69904;52.122;5.422;2024-03-29T09:31:05;99280.41;;;9.78;80.14
80186;BME280;69904;52.122;5.422;2024-03-29T09:33:31;99287.94;;;9.76;79.36
80186;BME280;69904;52.122;5.422;2024-03-29T09:35:57;99292.41;;;9.82;79.23
80186;BME280;69904;52.122;5.422;2024-03-29T09:38:25;99303.19;;;9.94;78.76
80186;BME280;69904;52.122;5.422;2024-03-29T09:41:03;99303.09;;;10.00;78.77
80186;BME280;69904;52.122;5.422;2024-03-29T09:43:32;99298.50;;;10.01;78.40
80186;BME280;69904;52.122;5.422;2024-03-29T09:45:57;99285.75;;;10.08;77.57
80186;BME280;69904;52.122;5.422;2024-03-29T09:48:25;99288.09;;;10.04;76.87
80186;BME280;69904;52.122;5.422;2024-03-29T09:50:51;99294.41;;;10.10;77.34
80186;BME280;69904;52.122;5.422;2024-03-29T09:53:19;99297.59;;;10.07;76.71
80186;BME280;69904;52.122;5.422;2024-03-29T09:55:46;99303.00;;;10.07;76.47
80186;BME280;69904;52.122;5.422;2024-03-29T09:58:12;99311.66;;;9.97;76.37
80186;BME280;69904;52.122;5.422;2024-03-29T10:00:38;99320.44;;;9.93;76.88
80186;BME280;69904;52.122;5.422;2024-03-29T10:03:05;99318.91;;;9.97;76.87
80186;BME280;69904;52.122;5.422;2024-03-29T10:05:31;99317.59;;;9.99;77.08
80186;BME280;69904;52.122;5.422;2024-03-29T10:07:57;99318.94;;;10.08;76.99
80186;BME280;69904;52.122;5.422;2024-03-29T10:10:31;99306.50;;;10.07;76.72
80186;BME280;69904;52.122;5.422;2024-03-29T10:12:57;99303.88;;;10.19;77.02
80186;BME280;69904;52.122;5.422;2024-03-29T10:15:23;99302.25;;;10.41;76.91
80186;BME280;69904;52.122;5.422;2024-03-29T10:17:51;99293.19;;;10.59;76.43
80186;BME280;69904;52.122;5.422;2024-03-29T10:20:18;99296.09;;;10.81;75.68
80186;BME280;69904;52.122;5.422;2024-03-29T10:22:45;99305.38;;;10.85;75.01
80186;BME280;69904;52.122;5.422;2024-03-29T10:25:13;99301.41;;;10.76;74.66
80186;BME280;69904;52.122;5.422;2024-03-29T10:27:39;99294.72;;;10.78;74.16
80186;BME280;69904;52.122;5.422;2024-03-29T10:30:09;99298.31;;;10.95;74.28
80186;BME280;69904;52.122;5.422;2024-03-29T10:32:38;99301.13;;;11.01;73.21
80186;BME280;69904;52.122;5.422;2024-03-29T10:35:08;99298.69;;;11.27;72.53
80186;BME280;69904;52.122;5.422;2024-03-29T10:37:36;99297.56;;;11.52;72.76
80186;BME280;69904;52.122;5.422;2024-03-29T10:40:10;99298.25;;;11.59;72.31
80186;BME280;69904;52.122;5.422;2024-03-29T10:42:37;99301.13;;;11.80;71.78
80186;BME280;69904;52.122;5.422;2024-03-29T10:45:05;99307.56;;;11.79;72.16
80186;BME280;69904;52.122;5.422;2024-03-29T10:47:32;99320.78;;;11.64;71.75
80186;BME280;69904;52.122;5.422;2024-03-29T10:49:58;99307.88;;;11.55;71.50
80186;BME280;69904;52.122;5.422;2024-03-29T10:52:27;99297.94;;;11.72;71.20
80186;BME280;69904;52.122;5.422;2024-03-29T10:54:54;99296.38;;;12.21;70.46
80186;BME280;69904;52.122;5.422;2024-03-29T10:57:25;99308.03;;;12.38;69.84
80186;BME280;69904;52.122;5.422;2024-03-29T11:00:07;99312.22;;;12.12;69.42
80186;BME280;69904;52.122;5.422;2024-03-29T11:05:16;99315.78;;;12.18;69.11
80186;BME280;69904;52.122;5.422;2024-03-29T11:07:43;99336.84;;;11.99;68.74
80186;BME280;69904;52.122;5.422;2024-03-29T11:10:13;99326.44;;;11.91;69.07
80186;BME280;69904;52.122;5.422;2024-03-29T11:13:12;99342.09;;;11.89;69.11
80186;BME280;69904;52.122;5.422;2024-03-29T11:15:41;99343.03;;;12.11;69.55
80186;BME280;69904;52.122;5.422;2024-03-29T11:18:08;99353.25;;;12.09;68.51
80186;BME280;69904;52.122;5.422;2024-03-29T11:20:34;99340.22;;;12.40;68.33
80186;BME280;69904;52.122;5.422;2024-03-29T11:23:04;99337.28;;;12.75;67.17
80186;BME280;69904;52.122;5.422;2024-03-29T11:25:39;99330.84;;;12.97;66.58
80186;BME280;69904;52.122;5.422;2024-03-29T11:28:06;99330.44;;;12.89;66.25
80186;BME280;69904;52.122;5.422;2024-03-29T11:30:43;99316.34;;;12.87;66.35
80186;BME280;69904;52.122;5.422;2024-03-29T11:33:27;99312.97;;;12.80;67.01
80186;BME280;69904;52.122;5.422;2024-03-29T11:35:53;99324.72;;;12.69;66.51
80186;BME280;69904;52.122;5.422;2024-03-29T11:38:18;99324.13;;;12.83;66.81
80186;BME280;69904;52.122;5.422;2024-03-29T11:40:54;99320.56;;;12.99;66.11
80186;BME280;69904;52.122;5.422;2024-03-29T11:43:20;99314.06;;;13.00;65.99
80186;BME280;69904;52.122;5.422;2024-03-29T11:45:49;99318.72;;;13.05;64.95
80186;BME280;69904;52.122;5.422;2024-03-29T11:48:25;99327.38;;;13.02;64.51
80186;BME280;69904;52.122;5.422;2024-03-29T11:50:52;99331.75;;;12.86;64.28
80186;BME280;69904;52.122;5.422;2024-03-29T11:53:19;99326.28;;;12.81;63.84
80186;BME280;69904;52.122;5.422;2024-03-29T11:55:45;99330.22;;;12.74;64.29
80186;BME280;69904;52.122;5.422;2024-03-29T11:58:10;99328.72;;;12.83;64.00
80186;BME280;69904;52.122;5.422;2024-03-29T12:00:38;99330.53;;;12.77;64.63
80186;BME280;69904;52.122;5.422;2024-03-29T12:03:05;99339.06;;;12.86;64.78
80186;BME280;69904;52.122;5.422;2024-03-29T12:05:30;99332.00;;;12.85;64.72
80186;BME280;69904;52.122;5.422;2024-03-29T12:07:56;99336.19;;;12.92;65.14
80186;BME280;69904;52.122;5.422;2024-03-29T12:10:27;99344.25;;;13.09;65.12
80186;BME280;69904;52.122;5.422;2024-03-29T12:12:56;99359.59;;;13.20;64.49
80186;BME280;69904;52.122;5.422;2024-03-29T12:15:23;99355.66;;;13.11;63.83
80186;BME280;69904;52.122;5.422;2024-03-29T12:17:57;99365.91;;;13.09;64.56
80186;BME280;69904;52.122;5.422;2024-03-29T12:20:23;99374.66;;;12.94;63.62
80186;BME280;69904;52.122;5.422;2024-03-29T12:22:49;99369.47;;;12.93;64.48
80186;BME280;69904;52.122;5.422;2024-03-29T12:25:15;99369.75;;;12.91;64.60
80186;BME280;69904;52.122;5.422;2024-03-29T12:27:44;99368.69;;;12.92;63.60
80186;BME280;69904;52.122;5.422;2024-03-29T12:30:12;99353.81;;;13.12;63.10
80186;BME280;69904;52.122;5.422;2024-03-29T12:32:37;99372.53;;;13.13;62.97
80186;BME280;69904;52.122;5.422;2024-03-29T12:35:13;99363.63;;;13.18;62.91
80186;BME280;69904;52.122;5.422;2024-03-29T12:37:50;99376.38;;;13.39;62.49
80186;BME280;69904;52.122;5.422;2024-03-29T12:40:17;99381.75;;;13.56;62.52
80186;BME280;69904;52.122;5.422;2024-03-29T12:42:51;99375.16;;;13.73;61.98
80186;BME280;69904;52.122;5.422;2024-03-29T12:45:18;99378.97;;;13.72;61.90
80186;BME280;69904;52.122;5.422;2024-03-29T12:47:45;99375.53;;;13.82;62.94
80186;BME280;69904;52.122;5.422;2024-03-29T12:50:31;99368.53;;;13.86;62.11
80186;BME280;69904;52.122;5.422;2024-03-29T12:52:59;99361.94;;;13.77;61.72
80186;BME280;69904;52.122;5.422;2024-03-29T12:55:28;99374.09;;;13.74;61.52
80186;BME280;69904;52.122;5.422;2024-03-29T12:57:56;99381.41;;;13.74;60.66
80186;BME280;69904;52.122;5.422;2024-03-29T13:00:22;99375.44;;;13.72;61.30
80186;BME280;69904;52.122;5.422;2024-03-29T13:02:48;99371.56;;;13.68;61.19
80186;BME280;69904;52.122;5.422;2024-03-29T13:05:14;99370.69;;;13.62;61.77
80186;BME280;69904;52.122;5.422;2024-03-29T13:07:39;99382.28;;;13.58;61.59
80186;BME280;69904;52.122;5.422;2024-03-29T13:10:05;99390.13;;;13.54;62.25